createdAt,value
2023-02-19T00:00:21.622Z,9.60
2023-02-19T00:00:51.086Z,9.60
2023-02-19T00:01:22.289Z,9.60
2023-02-19T00:01:53.419Z,9.60
2023-02-19T00:02:23.897Z,9.50
2023-02-19T00:02:55.311Z,9.50
2023-02-19T00:03:26.140Z,9.50
2023-02-19T00:03:57.083Z,9.50
2023-02-19T00:04:28.352Z,9.50
2023-02-19T00:04:59.282Z,9.50
2023-02-19T00:05:31.659Z,9.50
2023-02-19T00:06:01.310Z,9.50
2023-02-19T00:06:31.886Z,9.60
2023-02-19T00:07:02.914Z,9.60
2023-02-19T00:07:34.043Z,9.60
2023-02-19T00:08:05.088Z,9.60
2023-02-19T00:08:36.088Z,9.60
2023-02-19T00:09:07.474Z,9.50
2023-02-19T00:09:38.416Z,9.50
2023-02-19T00:10:09.713Z,9.50
2023-02-19T00:10:39.938Z,9.50
2023-02-19T00:11:11.575Z,9.50
2023-02-19T00:11:42.350Z,9.50
2023-02-19T00:12:13.424Z,9.50
2023-02-19T00:12:44.300Z,9.50
2023-02-19T00:13:15.143Z,9.40
2023-02-19T00:13:46.205Z,9.40
2023-02-19T00:14:17.042Z,9.40
2023-02-19T00:14:48.466Z,9.40
2023-02-19T00:15:20.423Z,9.40
2023-02-19T00:15:50.524Z,9.40
2023-02-19T00:16:21.164Z,9.50
2023-02-19T00:16:52.147Z,9.50
2023-02-19T00:17:23.168Z,9.50
2023-02-19T00:17:54.081Z,9.50
2023-02-19T00:18:24.925Z,9.50
2023-02-19T00:18:55.934Z,9.50
2023-02-19T00:19:27.236Z,9.50
2023-02-19T00:19:58.740Z,9.50
2023-02-19T00:20:29.615Z,9.50
2023-02-19T00:21:00.114Z,9.50
2023-02-19T00:21:32.148Z,9.50
2023-02-19T00:22:02.313Z,9.50
2023-02-19T00:22:33.448Z,9.50
2023-02-19T00:23:04.339Z,9.50
2023-02-19T00:23:35.277Z,9.50
2023-02-19T00:24:06.188Z,9.60
2023-02-19T00:24:37.414Z,9.60
2023-02-19T00:25:08.812Z,9.60
2023-02-19T00:25:39.489Z,9.60
2023-02-19T00:26:18.130Z,9.60
2023-02-19T00:26:41.101Z,9.60
2023-02-19T00:27:12.218Z,9.60
2023-02-19T00:27:43.316Z,9.50
2023-02-19T00:28:14.478Z,9.50
2023-02-19T00:28:45.110Z,9.50
2023-02-19T00:29:16.523Z,9.50
2023-02-19T00:29:47.052Z,9.60
2023-02-19T00:30:19.183Z,9.60
2023-02-19T00:30:49.283Z,9.60
2023-02-19T00:31:20.404Z,9.60
2023-02-19T00:31:51.362Z,9.60
2023-02-19T00:32:22.404Z,9.60
2023-02-19T00:32:53.109Z,9.60
2023-02-19T00:33:24.347Z,9.60
2023-02-19T00:33:55.173Z,9.60
2023-02-19T00:34:26.649Z,9.60
2023-02-19T00:34:57.193Z,9.60
2023-02-19T00:35:28.862Z,9.60
2023-02-19T00:35:59.245Z,9.60
2023-02-19T00:36:30.127Z,9.60
2023-02-19T00:37:01.079Z,9.50
2023-02-19T00:37:32.160Z,9.50
2023-02-19T00:38:03.535Z,9.50
2023-02-19T00:38:34.146Z,9.50
2023-02-19T00:39:05.124Z,9.50
2023-02-19T00:39:36.451Z,9.50
2023-02-19T00:40:07.740Z,9.50
2023-02-19T00:40:38.405Z,9.50
2023-02-19T00:41:09.391Z,9.50
2023-02-19T00:41:40.171Z,9.50
2023-02-19T00:42:11.485Z,9.50
2023-02-19T00:42:42.158Z,9.50
2023-02-19T00:43:13.329Z,9.50
2023-02-19T00:43:44.183Z,9.50
2023-02-19T00:44:15.071Z,9.50
2023-02-19T00:44:46.176Z,9.50
2023-02-19T00:45:18.618Z,9.60
2023-02-19T00:45:48.208Z,9.60
2023-02-19T00:46:19.235Z,9.60
2023-02-19T00:46:50.595Z,9.50
2023-02-19T00:47:21.540Z,9.50
2023-02-19T00:47:52.171Z,9.40
2023-02-19T00:48:23.099Z,9.40
2023-02-19T00:48:54.157Z,9.40
2023-02-19T00:49:25.561Z,9.40
2023-02-19T00:49:56.493Z,9.40
2023-02-19T00:50:28.053Z,9.40
2023-02-19T00:50:58.418Z,9.50
2023-02-19T00:51:29.364Z,9.50
2023-02-19T00:52:00.061Z,9.50
2023-02-19T00:52:31.479Z,9.40
2023-02-19T00:53:03.123Z,9.40
2023-02-19T00:53:33.435Z,9.40
2023-02-19T00:54:05.017Z,9.40
2023-02-19T00:54:35.425Z,9.50
2023-02-19T00:55:07.082Z,9.50
2023-02-19T00:55:37.627Z,9.50
2023-02-19T00:56:08.358Z,9.50
2023-02-19T00:56:39.458Z,9.40
2023-02-19T00:57:10.557Z,9.40
2023-02-19T00:57:41.172Z,9.40
2023-02-19T00:58:12.189Z,9.40
2023-02-19T00:58:43.488Z,9.40
2023-02-19T00:59:14.577Z,9.40
2023-02-19T00:59:45.580Z,9.40
2023-02-19T01:00:17.422Z,9.40
2023-02-19T01:00:47.588Z,9.40
2023-02-19T01:01:18.559Z,9.40
2023-02-19T01:01:49.777Z,9.40
2023-02-19T01:02:20.456Z,9.50
2023-02-19T01:02:51.667Z,9.50
2023-02-19T01:03:22.623Z,9.50
2023-02-19T01:03:53.622Z,9.50
2023-02-19T01:04:24.118Z,9.40
2023-02-19T01:04:55.281Z,9.40
2023-02-19T01:05:26.764Z,9.40
2023-02-19T01:05:57.451Z,9.40
2023-02-19T01:06:28.384Z,9.30
2023-02-19T01:06:59.504Z,9.20
2023-02-19T01:07:30.500Z,9.20
2023-02-19T01:08:01.581Z,9.20
2023-02-19T01:08:32.125Z,9.20
2023-02-19T01:09:03.229Z,9.20
2023-02-19T01:09:34.423Z,9.30
2023-02-19T01:10:05.973Z,9.30
2023-02-19T01:10:36.684Z,9.30
2023-02-19T01:11:08.048Z,9.30
2023-02-19T01:11:38.197Z,9.40
2023-02-19T01:12:09.604Z,9.40
2023-02-19T01:12:40.231Z,9.40
2023-02-19T01:13:11.256Z,9.40
2023-02-19T01:13:42.318Z,9.40
2023-02-19T01:14:13.426Z,9.40
2023-02-19T01:14:44.502Z,9.40
2023-02-19T01:15:16.668Z,9.40
2023-02-19T01:15:46.599Z,9.40
2023-02-19T01:16:17.428Z,9.40
2023-02-19T01:16:48.156Z,9.40
2023-02-19T01:17:19.202Z,9.50
2023-02-19T01:17:50.184Z,9.50
2023-02-19T01:18:21.320Z,9.50
2023-02-19T01:18:52.536Z,9.50
2023-02-19T01:19:23.498Z,9.50
2023-02-19T01:19:54.456Z,9.50
2023-02-19T01:20:25.760Z,9.40
2023-02-19T01:20:56.117Z,9.40
2023-02-19T01:21:27.159Z,9.40
2023-02-19T01:21:58.303Z,9.40
2023-02-19T01:22:29.397Z,9.40
2023-02-19T01:23:00.210Z,9.40
2023-02-19T01:23:31.534Z,9.40
2023-02-19T01:24:02.398Z,9.40
2023-02-19T01:24:34.436Z,9.40
2023-02-19T01:25:04.625Z,9.40
2023-02-19T01:25:35.599Z,9.40
2023-02-19T01:26:06.398Z,9.40
2023-02-19T01:26:37.282Z,9.40
2023-02-19T01:27:08.261Z,9.50
2023-02-19T01:27:39.384Z,9.50
2023-02-19T01:28:10.242Z,9.60
2023-02-19T01:28:41.267Z,9.60
2023-02-19T01:29:12.212Z,9.60
2023-02-19T01:29:43.267Z,9.60
2023-02-19T01:30:15.313Z,9.60
2023-02-19T01:30:45.368Z,9.50
2023-02-19T01:31:16.616Z,9.50
2023-02-19T01:31:47.624Z,9.50
2023-02-19T01:32:18.420Z,9.50
2023-02-19T01:32:49.557Z,9.50
2023-02-19T01:33:20.408Z,9.50
2023-02-19T01:33:51.231Z,9.50
2023-02-19T01:34:22.280Z,9.50
2023-02-19T01:34:53.252Z,9.50
2023-02-19T01:35:24.794Z,9.50
2023-02-19T01:35:55.312Z,9.50
2023-02-19T01:36:26.890Z,9.50
2023-02-19T01:36:57.269Z,9.50
2023-02-19T01:37:28.191Z,9.50
2023-02-19T01:37:59.425Z,9.50
2023-02-19T01:38:30.388Z,9.50
2023-02-19T01:39:01.348Z,9.50
2023-02-19T01:39:32.422Z,9.60
2023-02-19T01:40:03.832Z,9.60
2023-02-19T01:40:34.403Z,9.60
2023-02-19T01:41:05.277Z,9.60
2023-02-19T01:41:36.636Z,9.50
2023-02-19T01:42:07.318Z,9.50
2023-02-19T01:42:38.302Z,9.50
2023-02-19T01:43:09.352Z,9.50
2023-02-19T01:43:40.398Z,9.60
2023-02-19T01:44:11.492Z,9.60
2023-02-19T01:44:42.441Z,9.60
2023-02-19T01:45:14.434Z,9.50
2023-02-19T01:45:44.572Z,9.50
2023-02-19T01:46:15.279Z,9.50
2023-02-19T01:46:46.584Z,9.60
2023-02-19T01:47:17.539Z,9.60
2023-02-19T01:47:48.549Z,9.60
2023-02-19T01:48:19.354Z,9.60
2023-02-19T01:48:50.344Z,9.60
2023-02-19T01:49:21.339Z,9.50
2023-02-19T01:49:52.288Z,9.50
2023-02-19T01:50:24.025Z,9.50
2023-02-19T01:50:54.698Z,9.60
2023-02-19T01:51:25.705Z,9.60
2023-02-19T01:51:56.374Z,9.50
2023-02-19T01:52:27.390Z,9.50
2023-02-19T01:53:01.871Z,9.50
2023-02-19T01:53:29.707Z,9.50
2023-02-19T01:54:00.656Z,9.50
2023-02-19T01:54:31.581Z,9.50
2023-02-19T01:55:03.274Z,9.50
2023-02-19T01:55:33.789Z,9.50
2023-02-19T01:56:05.774Z,9.50
2023-02-19T01:56:35.736Z,9.50
2023-02-19T01:57:07.565Z,9.50
2023-02-19T01:57:37.524Z,9.50
2023-02-19T01:58:08.617Z,9.50
2023-02-19T01:58:39.544Z,9.50
2023-02-19T01:59:10.597Z,9.50
2023-02-19T01:59:41.729Z,9.50
2023-02-19T02:00:13.392Z,9.50
2023-02-19T02:00:43.808Z,9.50
2023-02-19T02:01:14.688Z,9.50
2023-02-19T02:01:45.533Z,9.60
2023-02-19T02:02:16.620Z,9.60
2023-02-19T02:02:47.344Z,9.60
2023-02-19T02:03:18.382Z,9.60
2023-02-19T02:03:49.729Z,9.60
2023-02-19T02:04:20.764Z,9.60
2023-02-19T02:04:51.406Z,9.60
2023-02-19T02:05:22.833Z,9.60
2023-02-19T02:05:54.003Z,9.50
2023-02-19T02:06:24.737Z,9.60
2023-02-19T02:06:55.738Z,9.60
2023-02-19T02:07:26.571Z,9.60
2023-02-19T02:07:57.434Z,9.50
2023-02-19T02:08:28.585Z,9.60
2023-02-19T02:08:59.805Z,9.60
2023-02-19T02:09:30.378Z,9.60
2023-02-19T02:10:02.258Z,9.60
2023-02-19T02:10:32.409Z,9.60
2023-02-19T02:11:03.806Z,9.60
2023-02-19T02:11:34.695Z,9.60
2023-02-19T02:12:05.500Z,9.60
2023-02-19T02:12:36.656Z,9.60
2023-02-19T02:13:07.539Z,9.60
2023-02-19T02:13:38.550Z,9.60
2023-02-19T02:14:09.411Z,9.60
2023-02-19T02:14:40.341Z,9.60
2023-02-19T02:15:12.552Z,9.60
2023-02-19T02:15:42.616Z,9.60
2023-02-19T02:16:13.910Z,9.60
2023-02-19T02:16:44.512Z,9.60
2023-02-19T02:17:15.804Z,9.60
2023-02-19T02:17:46.555Z,9.50
2023-02-19T02:18:17.422Z,9.50
2023-02-19T02:18:48.625Z,9.50
2023-02-19T02:19:19.387Z,9.50
2023-02-19T02:19:50.462Z,9.60
2023-02-19T02:20:22.092Z,9.60
2023-02-19T02:20:52.536Z,9.60
2023-02-19T02:21:24.022Z,9.60
2023-02-19T02:21:54.829Z,9.60
2023-02-19T02:22:25.854Z,9.60
2023-02-19T02:22:56.940Z,9.60
2023-02-19T02:23:27.666Z,9.70
2023-02-19T02:23:58.851Z,9.70
2023-02-19T02:24:29.423Z,9.70
2023-02-19T02:25:00.760Z,9.70
2023-02-19T02:25:31.630Z,9.60
2023-02-19T02:26:02.731Z,9.50
2023-02-19T02:26:33.408Z,9.50
2023-02-19T02:27:04.510Z,9.50
2023-02-19T02:27:36.404Z,9.50
2023-02-19T02:28:06.928Z,9.50
2023-02-19T02:28:38.786Z,9.50
2023-02-19T02:29:08.870Z,9.50
2023-02-19T02:29:39.508Z,9.50
2023-02-19T02:30:11.678Z,9.50
2023-02-19T02:30:41.649Z,9.50
2023-02-19T02:31:12.897Z,9.50
2023-02-19T02:31:43.677Z,9.50
2023-02-19T02:32:14.651Z,9.40
2023-02-19T02:32:45.869Z,9.40
2023-02-19T02:33:16.521Z,9.40
2023-02-19T02:33:47.513Z,9.40
2023-02-19T02:34:18.549Z,9.40
2023-02-19T02:34:49.578Z,9.50
2023-02-19T02:35:21.479Z,9.50
2023-02-19T02:35:51.864Z,9.50
2023-02-19T02:36:22.882Z,9.50
2023-02-19T02:36:53.724Z,9.50
2023-02-19T02:37:25.034Z,9.50
2023-02-19T02:37:55.709Z,9.50
2023-02-19T02:38:26.524Z,9.50
2023-02-19T02:38:57.484Z,9.50
2023-02-19T02:39:28.634Z,9.50
2023-02-19T02:39:59.439Z,9.40
2023-02-19T02:40:31.899Z,9.40
2023-02-19T02:41:01.510Z,9.30
2023-02-19T02:41:32.589Z,9.30
2023-02-19T02:42:03.554Z,9.30
2023-02-19T02:42:34.685Z,9.30
2023-02-19T02:43:05.595Z,9.30
2023-02-19T02:43:36.821Z,9.30
2023-02-19T02:44:08.384Z,9.30
2023-02-19T02:44:38.538Z,9.30
2023-02-19T02:45:10.568Z,9.30
2023-02-19T02:45:40.913Z,9.20
2023-02-19T02:46:11.832Z,9.20
2023-02-19T02:46:42.614Z,9.20
2023-02-19T02:47:13.473Z,9.20
2023-02-19T02:47:44.448Z,9.30
2023-02-19T02:48:15.481Z,9.30
2023-02-19T02:48:46.653Z,9.30
2023-02-19T02:49:17.883Z,9.20
2023-02-19T02:49:48.757Z,9.20
2023-02-19T02:50:20.389Z,9.10
2023-02-19T02:50:51.093Z,9.10
2023-02-19T02:51:21.621Z,9.10
2023-02-19T02:51:52.780Z,9.20
2023-02-19T02:52:23.536Z,9.30
2023-02-19T02:52:54.533Z,9.40
2023-02-19T02:53:25.568Z,9.40
2023-02-19T02:53:56.983Z,9.40
2023-02-19T02:54:27.642Z,9.40
2023-02-19T02:55:00.212Z,9.40
2023-02-19T02:55:30.216Z,9.40
2023-02-19T02:56:00.780Z,9.40
2023-02-19T02:56:31.503Z,9.40
2023-02-19T02:57:02.772Z,9.40
2023-02-19T02:57:33.567Z,9.40
2023-02-19T02:58:04.939Z,9.40
2023-02-19T02:58:35.738Z,9.50
2023-02-19T02:59:07.848Z,9.50
2023-02-19T02:59:37.556Z,9.50
2023-02-19T03:00:10.517Z,9.50
2023-02-19T03:00:39.538Z,9.40
2023-02-19T03:01:11.434Z,9.40
2023-02-19T03:01:41.644Z,9.40
2023-02-19T03:02:12.767Z,9.50
2023-02-19T03:02:43.605Z,9.40
2023-02-19T03:03:47.486Z,9.50
2023-02-19T03:03:50.213Z,9.50
2023-02-19T03:04:16.537Z,9.50
2023-02-19T03:04:47.538Z,9.50
2023-02-19T03:05:19.489Z,9.40
2023-02-19T03:05:49.966Z,9.40
2023-02-19T03:06:20.812Z,9.40
2023-02-19T03:06:51.582Z,9.40
2023-02-19T03:07:22.632Z,9.40
2023-02-19T03:07:53.528Z,9.40
2023-02-19T03:08:25.229Z,9.40
2023-02-19T03:08:55.567Z,9.40
2023-02-19T03:09:26.632Z,9.40
2023-02-19T03:09:57.724Z,9.40
2023-02-19T03:10:29.197Z,9.40
2023-02-19T03:10:59.818Z,9.40
2023-02-19T03:11:30.829Z,9.40
2023-02-19T03:12:01.832Z,9.40
2023-02-19T03:12:33.168Z,9.30
2023-02-19T03:13:03.569Z,9.30
2023-02-19T03:13:34.954Z,9.30
2023-02-19T03:14:05.644Z,9.30
2023-02-19T03:14:36.616Z,9.40
2023-02-19T03:15:09.143Z,9.40
2023-02-19T03:15:38.739Z,9.40
2023-02-19T03:16:09.756Z,9.40
2023-02-19T03:16:42.730Z,9.40
2023-02-19T03:17:11.742Z,9.30
2023-02-19T03:17:42.989Z,9.30
2023-02-19T03:18:14.052Z,9.30
2023-02-19T03:18:44.924Z,9.30
2023-02-19T03:19:15.683Z,9.30
2023-02-19T03:19:46.871Z,9.30
2023-02-19T03:20:18.352Z,9.30
2023-02-19T03:20:48.559Z,9.30
2023-02-19T03:21:19.881Z,9.30
2023-02-19T03:21:51.056Z,9.30
2023-02-19T03:22:22.312Z,9.30
2023-02-19T03:22:53.003Z,9.30
2023-02-19T03:23:23.627Z,9.30
2023-02-19T03:23:55.083Z,9.30
2023-02-19T03:24:25.808Z,9.30
2023-02-19T03:24:56.833Z,9.30
2023-02-19T03:25:28.150Z,9.30
2023-02-19T03:25:59.379Z,9.30
2023-02-19T03:26:30.079Z,9.30
2023-02-19T03:27:00.797Z,9.30
2023-02-19T03:27:32.027Z,9.30
2023-02-19T03:28:02.911Z,9.30
2023-02-19T03:28:34.031Z,9.30
2023-02-19T03:29:05.280Z,9.30
2023-02-19T03:29:35.854Z,9.30
2023-02-19T03:30:07.848Z,9.30
2023-02-19T03:30:40.207Z,9.30
2023-02-19T03:31:09.723Z,9.30
2023-02-19T03:31:42.463Z,9.30
2023-02-19T03:32:11.157Z,9.30
2023-02-19T03:32:42.297Z,9.30
2023-02-19T03:33:12.705Z,9.30
2023-02-19T03:33:43.885Z,9.30
2023-02-19T03:34:15.131Z,9.30
2023-02-19T03:34:45.727Z,9.30
2023-02-19T03:35:17.359Z,9.30
2023-02-19T03:35:47.694Z,9.30
2023-02-19T03:36:19.040Z,9.30
2023-02-19T03:36:49.885Z,9.30
2023-02-19T03:37:20.933Z,9.30
2023-02-19T03:37:51.940Z,9.30
2023-02-19T03:38:24.856Z,9.30
2023-02-19T03:38:54.025Z,9.30
2023-02-19T03:39:25.061Z,9.30
2023-02-19T03:39:55.750Z,9.20
2023-02-19T03:40:27.473Z,9.20
2023-02-19T03:40:58.003Z,9.20
2023-02-19T03:41:29.185Z,9.20
2023-02-19T03:41:59.650Z,9.20
2023-02-19T03:42:31.141Z,9.20
2023-02-19T03:43:02.312Z,9.20
2023-02-19T03:43:34.657Z,9.20
2023-02-19T03:44:04.083Z,9.20
2023-02-19T03:44:35.048Z,9.20
2023-02-19T03:45:06.591Z,9.20
2023-02-19T03:45:36.724Z,9.20
2023-02-19T03:46:07.774Z,9.20
2023-02-19T03:46:38.754Z,9.20
2023-02-19T03:47:09.724Z,9.20
2023-02-19T03:47:41.088Z,9.20
2023-02-19T03:48:12.094Z,9.20
2023-02-19T03:48:42.824Z,9.20
2023-02-19T03:49:13.807Z,9.20
2023-02-19T03:49:46.294Z,9.20
2023-02-19T03:50:16.349Z,9.20
2023-02-19T03:50:47.062Z,9.20
2023-02-19T03:51:17.993Z,9.10
2023-02-19T03:51:49.107Z,9.10
2023-02-19T03:52:20.383Z,9.10
2023-02-19T03:52:50.969Z,9.10
2023-02-19T03:53:21.692Z,9.10
2023-02-19T03:53:52.665Z,9.10
2023-02-19T03:54:23.871Z,9.00
2023-02-19T03:54:55.116Z,9.00
2023-02-19T03:55:26.321Z,8.90
2023-02-19T03:55:56.787Z,8.90
2023-02-19T03:56:27.938Z,8.90
2023-02-19T03:56:59.197Z,8.90
2023-02-19T03:57:29.719Z,8.90
2023-02-19T03:58:00.684Z,9.00
2023-02-19T03:58:32.109Z,9.00
2023-02-19T03:59:03.179Z,9.00
2023-02-19T03:59:34.368Z,9.00
2023-02-19T04:00:06.031Z,9.00
2023-02-19T04:00:35.853Z,9.00
2023-02-19T04:01:07.157Z,9.00
2023-02-19T04:01:37.847Z,9.00
2023-02-19T04:02:10.804Z,9.00
2023-02-19T04:02:39.955Z,8.90
2023-02-19T04:03:12.819Z,8.80
2023-02-19T04:03:41.778Z,8.80
2023-02-19T04:04:14.062Z,8.80
2023-02-19T04:04:44.207Z,8.80
2023-02-19T04:05:15.383Z,8.80
2023-02-19T04:05:46.234Z,8.80
2023-02-19T04:06:17.144Z,8.80
2023-02-19T04:06:47.798Z,8.80
2023-02-19T04:07:19.223Z,8.80
2023-02-19T04:07:50.324Z,8.80
2023-02-19T04:08:20.853Z,8.80
2023-02-19T04:08:52.141Z,8.80
2023-02-19T04:09:23.433Z,8.80
2023-02-19T04:09:54.044Z,8.80
2023-02-19T04:10:25.329Z,8.80
2023-02-19T04:10:55.757Z,8.80
2023-02-19T04:11:26.995Z,8.80
2023-02-19T04:11:58.244Z,8.80
2023-02-19T04:12:28.856Z,8.80
2023-02-19T04:13:00.105Z,8.80
2023-02-19T04:13:30.859Z,8.80
2023-02-19T04:14:01.769Z,8.80
2023-02-19T04:14:32.752Z,8.80
2023-02-19T04:15:04.622Z,8.80
2023-02-19T04:15:35.151Z,8.80
2023-02-19T04:16:06.152Z,8.80
2023-02-19T04:16:36.880Z,8.80
2023-02-19T04:17:08.118Z,8.80
2023-02-19T04:17:39.067Z,8.80
2023-02-19T04:18:10.158Z,8.70
2023-02-19T04:18:41.116Z,8.70
2023-02-19T04:19:11.884Z,8.70
2023-02-19T04:19:42.841Z,8.70
2023-02-19T04:20:14.799Z,8.70
2023-02-19T04:20:44.882Z,8.70
2023-02-19T04:21:16.116Z,8.70
2023-02-19T04:21:47.332Z,8.70
2023-02-19T04:22:18.059Z,8.70
2023-02-19T04:22:49.193Z,8.60
2023-02-19T04:23:20.141Z,8.60
2023-02-19T04:23:50.931Z,8.60
2023-02-19T04:24:21.935Z,8.60
2023-02-19T04:24:52.939Z,8.60
2023-02-19T04:25:24.462Z,8.60
2023-02-19T04:25:55.166Z,8.60
2023-02-19T04:26:26.355Z,8.70
2023-02-19T04:26:56.809Z,8.70
2023-02-19T04:27:28.080Z,8.70
2023-02-19T04:27:58.979Z,8.70
2023-02-19T04:28:29.809Z,8.70
2023-02-19T04:29:01.229Z,8.60
2023-02-19T04:29:32.278Z,8.60
2023-02-19T04:30:03.885Z,8.60
2023-02-19T04:30:34.431Z,8.60
2023-02-19T04:31:04.813Z,8.60
2023-02-19T04:31:36.153Z,8.60
2023-02-19T04:32:07.014Z,8.60
2023-02-19T04:32:37.877Z,8.60
2023-02-19T04:33:09.087Z,8.60
2023-02-19T04:33:42.036Z,8.60
2023-02-19T04:34:10.908Z,8.60
2023-02-19T04:34:44.497Z,8.60
2023-02-19T04:35:13.361Z,8.60
2023-02-19T04:35:45.373Z,8.60
2023-02-19T04:36:15.028Z,8.60
2023-02-19T04:36:48.916Z,8.50
2023-02-19T04:37:16.912Z,8.50
2023-02-19T04:37:47.990Z,8.60
2023-02-19T04:38:19.172Z,8.60
2023-02-19T04:38:50.449Z,8.60
2023-02-19T04:39:20.848Z,8.60
2023-02-19T04:39:52.027Z,8.60
2023-02-19T04:40:24.028Z,8.60
2023-02-19T04:40:54.303Z,8.60
2023-02-19T04:41:25.174Z,8.60
2023-02-19T04:41:59.621Z,8.60
2023-02-19T04:42:27.037Z,8.60
2023-02-19T04:42:57.872Z,8.50
2023-02-19T04:43:29.224Z,8.50
2023-02-19T04:44:00.507Z,8.40
2023-02-19T04:44:31.324Z,8.40
2023-02-19T04:45:03.177Z,8.40
2023-02-19T04:45:32.994Z,8.40
2023-02-19T04:46:04.104Z,8.40
2023-02-19T04:46:35.011Z,8.40
2023-02-19T04:47:06.324Z,8.50
2023-02-19T04:47:36.857Z,8.50
2023-02-19T04:48:08.109Z,8.50
2023-02-19T04:48:38.934Z,8.50
2023-02-19T04:49:10.434Z,8.50
2023-02-19T04:49:40.976Z,8.40
2023-02-19T04:50:12.588Z,8.40
2023-02-19T04:50:42.939Z,8.30
2023-02-19T04:51:14.321Z,8.30
2023-02-19T04:51:45.241Z,8.30
2023-02-19T04:52:15.912Z,8.30
2023-02-19T04:52:47.281Z,8.30
2023-02-19T04:53:18.163Z,8.30
2023-02-19T04:53:49.329Z,8.40
2023-02-19T04:54:20.430Z,8.40
2023-02-19T04:54:51.146Z,8.40
2023-02-19T04:55:22.234Z,8.50
2023-02-19T04:55:53.322Z,8.50
2023-02-19T04:56:23.943Z,8.50
2023-02-19T04:56:55.003Z,8.50
2023-02-19T04:57:25.944Z,8.50
2023-02-19T04:57:57.157Z,8.50
2023-02-19T04:58:27.982Z,8.50
2023-02-19T04:58:58.972Z,8.50
2023-02-19T04:59:30.431Z,8.50
2023-02-19T05:00:01.791Z,8.50
2023-02-19T05:00:32.561Z,8.50
2023-02-19T05:01:03.315Z,8.50
2023-02-19T05:01:34.010Z,8.50
2023-02-19T05:02:05.232Z,8.50
2023-02-19T05:02:36.163Z,8.50
2023-02-19T05:03:07.064Z,8.50
2023-02-19T05:03:38.141Z,8.50
2023-02-19T05:04:09.333Z,8.50
2023-02-19T05:04:40.577Z,8.50
2023-02-19T05:05:12.761Z,8.50
2023-02-19T05:05:41.957Z,8.50
2023-02-19T05:06:13.544Z,8.40
2023-02-19T05:06:44.286Z,8.40
2023-02-19T05:07:15.464Z,8.40
2023-02-19T05:07:45.960Z,8.50
2023-02-19T05:08:16.947Z,8.50
2023-02-19T05:08:47.968Z,8.60
2023-02-19T05:09:19.057Z,8.60
2023-02-19T05:09:50.263Z,8.60
2023-02-19T05:10:21.958Z,8.60
2023-02-19T05:10:52.033Z,8.60
2023-02-19T05:11:23.008Z,8.60
2023-02-19T05:11:54.442Z,8.60
2023-02-19T05:12:24.932Z,8.60
2023-02-19T05:12:57.933Z,8.60
2023-02-19T05:13:27.404Z,8.60
2023-02-19T05:13:58.079Z,8.60
2023-02-19T05:14:29.042Z,8.60
2023-02-19T05:15:00.438Z,8.60
2023-02-19T05:15:32.320Z,8.60
2023-02-19T05:16:01.975Z,8.60
2023-02-19T05:16:33.283Z,8.60
2023-02-19T05:17:04.391Z,8.60
2023-02-19T05:17:35.030Z,8.60
2023-02-19T05:18:06.387Z,8.60
2023-02-19T05:18:37.117Z,8.60
2023-02-19T05:19:08.719Z,8.60
2023-02-19T05:19:39.155Z,8.60
2023-02-19T05:20:10.402Z,8.60
2023-02-19T05:20:40.929Z,8.60
2023-02-19T05:21:12.648Z,8.60
2023-02-19T05:21:43.292Z,8.60
2023-02-19T05:22:14.098Z,8.60
2023-02-19T05:22:45.463Z,8.60
2023-02-19T05:23:16.391Z,8.60
2023-02-19T05:23:47.233Z,8.60
2023-02-19T05:24:18.428Z,8.60
2023-02-19T05:24:49.329Z,8.60
2023-02-19T05:25:20.800Z,8.60
2023-02-19T05:25:51.533Z,8.60
2023-02-19T05:26:22.275Z,8.60
2023-02-19T05:26:53.093Z,8.60
2023-02-19T05:27:24.098Z,8.60
2023-02-19T05:27:55.092Z,8.60
2023-02-19T05:28:26.134Z,8.60
2023-02-19T05:28:56.993Z,8.60
2023-02-19T05:29:28.031Z,8.60
2023-02-19T05:29:59.435Z,8.60
2023-02-19T05:30:31.426Z,8.60
2023-02-19T05:31:01.488Z,8.60
2023-02-19T05:31:33.328Z,8.60
2023-02-19T05:32:03.336Z,8.60
2023-02-19T05:32:34.003Z,8.60
2023-02-19T05:33:05.313Z,8.60
2023-02-19T05:33:36.102Z,8.60
2023-02-19T05:34:07.334Z,8.60
2023-02-19T05:34:38.262Z,8.60
2023-02-19T05:35:09.863Z,8.60
2023-02-19T05:35:40.068Z,8.60
2023-02-19T05:36:11.106Z,8.60
2023-02-19T05:36:43.277Z,8.60
2023-02-19T05:37:13.000Z,8.60
2023-02-19T05:37:45.738Z,8.60
2023-02-19T05:38:15.058Z,8.50
2023-02-19T05:38:46.555Z,8.50
2023-02-19T05:39:17.348Z,8.50
2023-02-19T05:39:48.114Z,8.50
2023-02-19T05:40:19.540Z,8.50
2023-02-19T05:40:50.051Z,8.50
2023-02-19T05:41:21.199Z,8.60
2023-02-19T05:41:52.348Z,8.60
2023-02-19T05:42:23.295Z,8.60
2023-02-19T05:42:54.705Z,8.60
2023-02-19T05:43:25.489Z,8.60
2023-02-19T05:43:56.122Z,8.60
2023-02-19T05:44:27.515Z,8.60
2023-02-19T05:44:57.999Z,8.60
2023-02-19T05:45:29.913Z,8.60
2023-02-19T05:46:00.182Z,8.60
2023-02-19T05:46:31.425Z,8.60
2023-02-19T05:47:02.067Z,8.60
2023-02-19T05:47:33.384Z,8.60
2023-02-19T05:48:05.054Z,8.60
2023-02-19T05:48:35.329Z,8.60
2023-02-19T05:49:06.042Z,8.60
2023-02-19T05:49:37.138Z,8.60
2023-02-19T05:50:09.088Z,8.60
2023-02-19T05:50:39.995Z,8.60
2023-02-19T05:51:10.571Z,8.60
2023-02-19T05:51:41.338Z,8.60
2023-02-19T05:52:12.513Z,8.50
2023-02-19T05:52:43.555Z,8.50
2023-02-19T05:53:14.032Z,8.50
2023-02-19T05:53:45.100Z,8.60
2023-02-19T05:54:16.235Z,8.60
2023-02-19T05:54:47.429Z,8.60
2023-02-19T05:55:18.900Z,8.60
2023-02-19T05:55:49.532Z,8.60
2023-02-19T05:56:20.141Z,8.60
2023-02-19T05:56:51.168Z,8.60
2023-02-19T05:57:23.163Z,8.60
2023-02-19T05:57:53.189Z,8.60
2023-02-19T05:58:24.151Z,8.60
2023-02-19T05:58:55.268Z,8.60
2023-02-19T05:59:26.452Z,8.60
2023-02-19T05:59:57.388Z,8.60
2023-02-19T06:00:29.259Z,8.50
2023-02-19T06:00:59.572Z,8.50
2023-02-19T06:01:30.422Z,8.50
2023-02-19T06:02:01.634Z,8.50
2023-02-19T06:02:32.678Z,8.50
2023-02-19T06:03:03.257Z,8.50
2023-02-19T06:03:34.194Z,8.50
2023-02-19T06:04:05.667Z,8.50
2023-02-19T06:04:36.169Z,8.50
2023-02-19T06:05:07.840Z,8.50
2023-02-19T06:05:38.116Z,8.50
2023-02-19T06:06:10.045Z,8.50
2023-02-19T06:06:40.353Z,8.50
2023-02-19T06:07:11.187Z,8.50
2023-02-19T06:07:42.563Z,8.50
2023-02-19T06:08:14.448Z,8.50
2023-02-19T06:08:44.203Z,8.50
2023-02-19T06:09:16.820Z,8.50
2023-02-19T06:09:46.121Z,8.50
2023-02-19T06:10:18.507Z,8.50
2023-02-19T06:10:48.288Z,8.50
2023-02-19T06:11:19.229Z,8.60
2023-02-19T06:11:50.444Z,8.60
2023-02-19T06:12:21.772Z,8.60
2023-02-19T06:12:52.338Z,8.60
2023-02-19T06:13:23.277Z,8.60
2023-02-19T06:13:54.196Z,8.60
2023-02-19T06:14:25.397Z,8.60
2023-02-19T06:14:56.164Z,8.60
2023-02-19T06:15:28.708Z,8.60
2023-02-19T06:15:58.529Z,8.60
2023-02-19T06:16:29.355Z,8.60
2023-02-19T06:17:00.604Z,8.60
2023-02-19T06:17:31.304Z,8.50
2023-02-19T06:18:02.319Z,8.60
2023-02-19T06:18:33.393Z,8.50
2023-02-19T06:19:04.542Z,8.50
2023-02-19T06:19:35.257Z,8.50
2023-02-19T06:20:06.646Z,8.50
2023-02-19T06:20:37.218Z,8.50
2023-02-19T06:21:08.503Z,8.50
2023-02-19T06:21:39.474Z,8.50
2023-02-19T06:22:10.554Z,8.50
2023-02-19T06:22:41.174Z,8.50
2023-02-19T06:23:12.625Z,8.50
2023-02-19T06:23:43.607Z,8.40
2023-02-19T06:24:14.558Z,8.40
2023-02-19T06:24:46.058Z,8.30
2023-02-19T06:25:16.829Z,8.30
2023-02-19T06:25:47.443Z,8.30
2023-02-19T06:26:18.133Z,8.30
2023-02-19T06:26:49.174Z,8.20
2023-02-19T06:27:20.601Z,8.20
2023-02-19T06:27:51.725Z,8.20
2023-02-19T06:28:22.194Z,8.20
2023-02-19T06:28:53.278Z,8.20
2023-02-19T06:29:24.299Z,8.20
2023-02-19T06:29:55.336Z,8.20
2023-02-19T06:30:27.696Z,8.20
2023-02-19T06:30:57.271Z,8.20
2023-02-19T06:31:28.379Z,8.20
2023-02-19T06:31:59.594Z,8.20
2023-02-19T06:32:30.388Z,8.20
2023-02-19T06:33:01.871Z,8.20
2023-02-19T06:33:32.358Z,8.20
2023-02-19T06:34:03.606Z,8.20
2023-02-19T06:34:34.220Z,8.10
2023-02-19T06:35:05.953Z,8.10
2023-02-19T06:35:36.362Z,8.10
2023-02-19T06:36:07.710Z,8.10
2023-02-19T06:36:38.642Z,8.10
2023-02-19T06:37:09.720Z,8.10
2023-02-19T06:37:40.448Z,8.10
2023-02-19T06:38:11.874Z,8.00
2023-02-19T06:38:42.523Z,8.00
2023-02-19T06:39:13.606Z,8.00
2023-02-19T06:39:46.223Z,8.00
2023-02-19T06:40:16.271Z,8.00
2023-02-19T06:40:46.992Z,8.00
2023-02-19T06:41:17.442Z,8.00
2023-02-19T06:41:48.668Z,8.00
2023-02-19T06:42:19.387Z,8.00
2023-02-19T06:42:50.536Z,8.10
2023-02-19T06:43:21.674Z,8.10
2023-02-19T06:43:52.419Z,8.10
2023-02-19T06:44:23.579Z,8.10
2023-02-19T06:44:54.690Z,8.10
2023-02-19T06:45:27.716Z,8.10
2023-02-19T06:45:56.784Z,8.10
2023-02-19T06:46:27.455Z,8.10
2023-02-19T06:46:58.671Z,8.10
2023-02-19T06:47:29.338Z,8.10
2023-02-19T06:48:00.624Z,8.10
2023-02-19T06:48:31.662Z,8.00
2023-02-19T06:49:02.378Z,8.00
2023-02-19T06:49:33.441Z,8.00
2023-02-19T06:50:04.752Z,8.00
2023-02-19T06:50:35.453Z,8.00
2023-02-19T06:51:06.305Z,8.00
2023-02-19T06:51:37.840Z,8.00
2023-02-19T06:52:08.930Z,8.00
2023-02-19T06:52:39.466Z,8.00